Clemons, Iowa
Current Conditions -  °F | °C
As of 5:53 AM on Wednesday 28 Jan 2015 (Local Time) from KMIW Reporting Station
Haze Haze  
Wind Chill: 17°   Ceiling: 200
Heat Index: 28°   Visibility: 1mi
Dew Point: 27°   Wind: 15mph
Humidity: 96%   Direction: 130°SE
Pressure: 30.07"   Gusts: NA
Location:  42.11°N, 93.16°W
Report Text: KMIW 281153Z AUTO 13013KT 1SM BR OVC002 M02/M03 A3007 RMK AO2 SLP192 I1001 I6001 T10221028 11017 21022 58010
Loading
Personal Weather Stations






























Interactive Weather Map New forecast layout! Learn more

10-Day Weather Forecast

Advertisements
Track Severe Weather on mobile